sensor_id;sensor_type;location;lat;lon;timestamp;temperature;humidity
29813;DHT22;16707;48.106;11.548;2022-07-23T00:00:45;22.70;96.80
29813;DHT22;16707;48.106;11.548;2022-07-23T00:03:28;22.70;97.10
29813;DHT22;16707;48.106;11.548;2022-07-23T00:06:41;22.60;96.70
29813;DHT22;16707;48.106;11.548;2022-07-23T00:15:06;22.50;96.50
29813;DHT22;16707;48.106;11.548;2022-07-23T00:17:34;22.40;97.00
29813;DHT22;16707;48.106;11.548;2022-07-23T00:20:05;22.30;97.10
29813;DHT22;16707;48.106;11.548;2022-07-23T00:22:48;22.20;97.00
29813;DHT22;16707;48.106;11.548;2022-07-23T00:25:26;22.20;98.70
29813;DHT22;16707;48.106;11.548;2022-07-23T00:27:53;22.10;99.00
29813;DHT22;16707;48.106;11.548;2022-07-23T00:30:29;22.00;98.20
29813;DHT22;16707;48.106;11.548;2022-07-23T00:32:58;21.90;98.00
29813;DHT22;16707;48.106;11.548;2022-07-23T00:35:28;21.90;98.20
29813;DHT22;16707;48.106;11.548;2022-07-23T00:37:57;21.90;97.10
29813;DHT22;16707;48.106;11.548;2022-07-23T00:40:27;21.90;97.20
29813;DHT22;16707;48.106;11.548;2022-07-23T00:42:54;21.80;98.00
29813;DHT22;16707;48.106;11.548;2022-07-23T00:45:22;21.80;98.20
29813;DHT22;16707;48.106;11.548;2022-07-23T00:47:57;21.80;95.70
29813;DHT22;16707;48.106;11.548;2022-07-23T00:50:33;21.90;95.00
29813;DHT22;16707;48.106;11.548;2022-07-23T00:53:07;22.10;94.30
29813;DHT22;16707;48.106;11.548;2022-07-23T00:55:35;22.20;93.80
29813;DHT22;16707;48.106;11.548;2022-07-23T00:58:05;22.20;93.30
29813;DHT22;16707;48.106;11.548;2022-07-23T01:00:33;22.30;93.20
29813;DHT22;16707;48.106;11.548;2022-07-23T01:03:04;22.40;92.80
29813;DHT22;16707;48.106;11.548;2022-07-23T01:05:32;22.50;92.10
29813;DHT22;16707;48.106;11.548;2022-07-23T01:08:12;22.50;91.70
29813;DHT22;16707;48.106;11.548;2022-07-23T01:10:48;22.50;91.20
29813;DHT22;16707;48.106;11.548;2022-07-23T01:13:22;22.60;91.90
29813;DHT22;16707;48.106;11.548;2022-07-23T01:15:58;22.80;93.50
29813;DHT22;16707;48.106;11.548;2022-07-23T01:18:27;23.00;93.30
29813;DHT22;16707;48.106;11.548;2022-07-23T01:20:54;23.20;94.40
29813;DHT22;16707;48.106;11.548;2022-07-23T01:23:23;23.50;90.80
29813;DHT22;16707;48.106;11.548;2022-07-23T01:26:02;23.50;91.70
29813;DHT22;16707;48.106;11.548;2022-07-23T01:28:32;23.50;83.80
29813;DHT22;16707;48.106;11.548;2022-07-23T01:31:02;22.90;76.50
29813;DHT22;16707;48.106;11.548;2022-07-23T01:33:35;22.40;78.40
29813;DHT22;16707;48.106;11.548;2022-07-23T01:36:09;22.00;80.40
29813;DHT22;16707;48.106;11.548;2022-07-23T01:38:38;21.70;80.90
29813;DHT22;16707;48.106;11.548;2022-07-23T01:41:08;21.50;81.00
29813;DHT22;16707;48.106;11.548;2022-07-23T01:43:42;21.10;85.90
29813;DHT22;16707;48.106;11.548;2022-07-23T01:46:16;20.80;90.60
29813;DHT22;16707;48.106;11.548;2022-07-23T01:48:56;20.60;93.30
29813;DHT22;16707;48.106;11.548;2022-07-23T01:51:23;20.50;94.90
29813;DHT22;16707;48.106;11.548;2022-07-23T01:53:56;20.40;96.40
29813;DHT22;16707;48.106;11.548;2022-07-23T01:56:28;20.30;97.60
29813;DHT22;16707;48.106;11.548;2022-07-23T01:58:56;20.20;99.40
29813;DHT22;16707;48.106;11.548;2022-07-23T02:01:26;20.10;99.90
29813;DHT22;16707;48.106;11.548;2022-07-23T02:03:53;20.00;99.90
29813;DHT22;16707;48.106;11.548;2022-07-23T02:06:20;19.90;99.90
29813;DHT22;16707;48.106;11.548;2022-07-23T02:08:47;19.90;99.90
29813;DHT22;16707;48.106;11.548;2022-07-23T02:11:21;19.80;99.90
29813;DHT22;16707;48.106;11.548;2022-07-23T02:13:51;19.80;99.90
29813;DHT22;16707;48.106;11.548;2022-07-23T02:16:21;19.60;99.90
29813;DHT22;16707;48.106;11.548;2022-07-23T02:18:55;19.60;99.90
29813;DHT22;16707;48.106;11.548;2022-07-23T02:21:31;19.60;99.90
29813;DHT22;16707;48.106;11.548;2022-07-23T02:23:58;19.60;99.90
29813;DHT22;16707;48.106;11.548;2022-07-23T02:26:27;19.50;99.90
29813;DHT22;16707;48.106;11.548;2022-07-23T02:29:01;19.40;99.90
29813;DHT22;16707;48.106;11.548;2022-07-23T02:31:34;19.20;99.90
29813;DHT22;16707;48.106;11.548;2022-07-23T02:34:09;19.00;99.90
29813;DHT22;16707;48.106;11.548;2022-07-23T02:36:43;18.80;99.90
29813;DHT22;16707;48.106;11.548;2022-07-23T02:39:10;18.70;99.90
29813;DHT22;16707;48.106;11.548;2022-07-23T02:41:42;18.80;99.90
29813;DHT22;16707;48.106;11.548;2022-07-23T02:44:10;18.70;99.90
29813;DHT22;16707;48.106;11.548;2022-07-23T02:46:50;18.70;99.90
29813;DHT22;16707;48.106;11.548;2022-07-23T02:49:20;18.80;99.90
29813;DHT22;16707;48.106;11.548;2022-07-23T02:51:48;18.70;99.90
29813;DHT22;16707;48.106;11.548;2022-07-23T02:54:15;18.70;99.90
29813;DHT22;16707;48.106;11.548;2022-07-23T02:56:53;18.70;99.90
29813;DHT22;16707;48.106;11.548;2022-07-23T02:59:20;18.80;99.90
29813;DHT22;16707;48.106;11.548;2022-07-23T03:01:48;18.90;99.90
29813;DHT22;16707;48.106;11.548;2022-07-23T03:04:21;18.90;99.90
29813;DHT22;16707;48.106;11.548;2022-07-23T03:07:02;18.80;99.90
29813;DHT22;16707;48.106;11.548;2022-07-23T03:09:36;18.80;99.90
29813;DHT22;16707;48.106;11.548;2022-07-23T03:12:10;18.70;99.90
29813;DHT22;16707;48.106;11.548;2022-07-23T03:14:38;18.60;99.90
29813;DHT22;16707;48.106;11.548;2022-07-23T03:17:12;18.60;99.90
29813;DHT22;16707;48.106;11.548;2022-07-23T03:19:39;18.50;99.90
29813;DHT22;16707;48.106;11.548;2022-07-23T03:22:08;18.50;99.90
29813;DHT22;16707;48.106;11.548;2022-07-23T03:24:36;18.50;99.90
29813;DHT22;16707;48.106;11.548;2022-07-23T03:27:22;18.50;99.90
29813;DHT22;16707;48.106;11.548;2022-07-23T03:29:50;18.60;99.90
29813;DHT22;16707;48.106;11.548;2022-07-23T03:32:27;18.60;99.90
29813;DHT22;16707;48.106;11.548;2022-07-23T03:34:54;18.80;99.90
29813;DHT22;16707;48.106;11.548;2022-07-23T03:37:24;18.80;99.90
29813;DHT22;16707;48.106;11.548;2022-07-23T03:39:51;18.90;99.90
29813;DHT22;16707;48.106;11.548;2022-07-23T03:42:18;18.90;99.90
29813;DHT22;16707;48.106;11.548;2022-07-23T03:44:53;19.00;99.90
29813;DHT22;16707;48.106;11.548;2022-07-23T03:47:33;19.00;99.90
29813;DHT22;16707;48.106;11.548;2022-07-23T03:50:02;19.00;99.90
29813;DHT22;16707;48.106;11.548;2022-07-23T03:52:34;19.00;99.90
29813;DHT22;16707;48.106;11.548;2022-07-23T03:55:02;19.10;99.90
29813;DHT22;16707;48.106;11.548;2022-07-23T03:57:29;19.10;99.90
29813;DHT22;16707;48.106;11.548;2022-07-23T03:59:58;19.00;99.90
29813;DHT22;16707;48.106;11.548;2022-07-23T04:02:34;18.90;99.90
29813;DHT22;16707;48.106;11.548;2022-07-23T04:05:02;18.90;99.90
29813;DHT22;16707;48.106;11.548;2022-07-23T04:07:33;18.90;99.90
29813;DHT22;16707;48.106;11.548;2022-07-23T04:10:00;19.10;99.90
29813;DHT22;16707;48.106;11.548;2022-07-23T04:12:28;19.10;99.90
29813;DHT22;16707;48.106;11.548;2022-07-23T04:14:55;19.00;99.90
29813;DHT22;16707;48.106;11.548;2022-07-23T04:17:24;19.00;99.90
29813;DHT22;16707;48.106;11.548;2022-07-23T04:19:57;19.00;99.90
29813;DHT22;16707;48.106;11.548;2022-07-23T04:22:34;18.90;99.90
29813;DHT22;16707;48.106;11.548;2022-07-23T04:25:04;18.80;99.90
29813;DHT22;16707;48.106;11.548;2022-07-23T04:27:33;18.80;99.90
29813;DHT22;16707;48.106;11.548;2022-07-23T04:30:06;18.60;99.90
29813;DHT22;16707;48.106;11.548;2022-07-23T04:32:45;18.50;99.90
29813;DHT22;16707;48.106;11.548;2022-07-23T04:35:13;18.60;99.90
29813;DHT22;16707;48.106;11.548;2022-07-23T04:37:43;18.60;99.90
29813;DHT22;16707;48.106;11.548;2022-07-23T04:40:22;18.60;99.90
29813;DHT22;16707;48.106;11.548;2022-07-23T04:42:50;18.60;99.90
29813;DHT22;16707;48.106;11.548;2022-07-23T04:45:21;18.70;99.90
29813;DHT22;16707;48.106;11.548;2022-07-23T04:47:56;18.80;99.90
29813;DHT22;16707;48.106;11.548;2022-07-23T04:50:26;18.90;99.90
29813;DHT22;16707;48.106;11.548;2022-07-23T04:52:59;19.00;99.90
29813;DHT22;16707;48.106;11.548;2022-07-23T04:55:29;19.00;99.90
29813;DHT22;16707;48.106;11.548;2022-07-23T04:58:02;19.10;99.90
29813;DHT22;16707;48.106;11.548;2022-07-23T05:00:32;19.50;99.90
29813;DHT22;16707;48.106;11.548;2022-07-23T05:03:03;19.70;99.90
29813;DHT22;16707;48.106;11.548;2022-07-23T05:05:36;20.00;99.90
29813;DHT22;16707;48.106;11.548;2022-07-23T05:08:04;20.10;99.90
29813;DHT22;16707;48.106;11.548;2022-07-23T05:10:34;20.20;99.90
29813;DHT22;16707;48.106;11.548;2022-07-23T05:13:02;20.10;99.90
29813;DHT22;16707;48.106;11.548;2022-07-23T05:15:29;19.90;99.90
29813;DHT22;16707;48.106;11.548;2022-07-23T05:18:02;19.80;99.90
29813;DHT22;16707;48.106;11.548;2022-07-23T05:20:36;19.70;99.90
29813;DHT22;16707;48.106;11.548;2022-07-23T05:23:03;19.80;99.90
29813;DHT22;16707;48.106;11.548;2022-07-23T05:25:40;19.70;99.90
29813;DHT22;16707;48.106;11.548;2022-07-23T05:28:07;19.80;99.90
29813;DHT22;16707;48.106;11.548;2022-07-23T05:30:35;19.70;99.90
29813;DHT22;16707;48.106;11.548;2022-07-23T05:33:03;19.60;99.90
29813;DHT22;16707;48.106;11.548;2022-07-23T05:35:33;19.70;99.90
29813;DHT22;16707;48.106;11.548;2022-07-23T05:38:03;19.80;99.90
29813;DHT22;16707;48.106;11.548;2022-07-23T05:40:31;19.80;99.90
29813;DHT22;16707;48.106;11.548;2022-07-23T05:42:58;19.40;99.90
29813;DHT22;16707;48.106;11.548;2022-07-23T05:45:28;19.50;99.90
29813;DHT22;16707;48.106;11.548;2022-07-23T05:47:56;19.50;99.90
29813;DHT22;16707;48.106;11.548;2022-07-23T05:50:31;19.60;99.90
29813;DHT22;16707;48.106;11.548;2022-07-23T05:52:59;19.60;99.90
29813;DHT22;16707;48.106;11.548;2022-07-23T05:55:30;19.50;99.90
29813;DHT22;16707;48.106;11.548;2022-07-23T05:58:08;19.50;99.90
29813;DHT22;16707;48.106;11.548;2022-07-23T06:00:35;19.50;99.90
29813;DHT22;16707;48.106;11.548;2022-07-23T06:03:15;19.50;99.90
29813;DHT22;16707;48.106;11.548;2022-07-23T06:05:44;19.60;99.90
29813;DHT22;16707;48.106;11.548;2022-07-23T06:08:14;19.60;99.90
29813;DHT22;16707;48.106;11.548;2022-07-23T06:10:47;19.80;99.90
29813;DHT22;16707;48.106;11.548;2022-07-23T06:13:18;20.00;99.90
29813;DHT22;16707;48.106;11.548;2022-07-23T06:15:53;20.10;99.90
29813;DHT22;16707;48.106;11.548;2022-07-23T06:18:20;20.10;99.90
29813;DHT22;16707;48.106;11.548;2022-07-23T06:20:49;19.90;99.90
29813;DHT22;16707;48.106;11.548;2022-07-23T06:23:16;19.80;99.90
29813;DHT22;16707;48.106;11.548;2022-07-23T06:25:43;19.70;99.90
29813;DHT22;16707;48.106;11.548;2022-07-23T06:28:14;19.70;99.90
29813;DHT22;16707;48.106;11.548;2022-07-23T06:30:44;19.70;99.90
29813;DHT22;16707;48.106;11.548;2022-07-23T06:33:11;19.70;99.90
29813;DHT22;16707;48.106;11.548;2022-07-23T06:35:41;19.70;99.90
29813;DHT22;16707;48.106;11.548;2022-07-23T06:38:14;19.80;99.90
29813;DHT22;16707;48.106;11.548;2022-07-23T06:40:41;19.90;99.90
29813;DHT22;16707;48.106;11.548;2022-07-23T06:43:09;20.10;99.90
29813;DHT22;16707;48.106;11.548;2022-07-23T06:45:36;20.20;99.90
29813;DHT22;16707;48.106;11.548;2022-07-23T06:48:04;20.20;99.90
29813;DHT22;16707;48.106;11.548;2022-07-23T06:50:34;20.30;99.90
29813;DHT22;16707;48.106;11.548;2022-07-23T06:53:07;20.20;99.90
29813;DHT22;16707;48.106;11.548;2022-07-23T06:55:38;20.10;99.90
29813;DHT22;16707;48.106;11.548;2022-07-23T06:58:05;20.40;99.90
29813;DHT22;16707;48.106;11.548;2022-07-23T07:00:34;20.70;99.90
29813;DHT22;16707;48.106;11.548;2022-07-23T07:03:01;21.00;99.90
29813;DHT22;16707;48.106;11.548;2022-07-23T07:05:29;21.20;99.90
29813;DHT22;16707;48.106;11.548;2022-07-23T07:07:56;21.20;99.90
29813;DHT22;16707;48.106;11.548;2022-07-23T07:10:25;21.20;99.90
29813;DHT22;16707;48.106;11.548;2022-07-23T07:12:53;21.30;99.90
29813;DHT22;16707;48.106;11.548;2022-07-23T07:15:21;21.30;99.90
29813;DHT22;16707;48.106;11.548;2022-07-23T07:17:53;21.30;99.90
29813;DHT22;16707;48.106;11.548;2022-07-23T07:20:23;21.30;99.90
29813;DHT22;16707;48.106;11.548;2022-07-23T07:22:50;21.50;99.90
29813;DHT22;16707;48.106;11.548;2022-07-23T07:25:18;21.40;99.90
29813;DHT22;16707;48.106;11.548;2022-07-23T07:27:45;21.80;99.90
29813;DHT22;16707;48.106;11.548;2022-07-23T07:30:16;21.90;99.90
29813;DHT22;16707;48.106;11.548;2022-07-23T07:32:43;21.90;99.90
29813;DHT22;16707;48.106;11.548;2022-07-23T07:35:10;21.90;99.90
29813;DHT22;16707;48.106;11.548;2022-07-23T07:37:43;21.90;99.90
29813;DHT22;16707;48.106;11.548;2022-07-23T07:40:11;21.90;99.90
29813;DHT22;16707;48.106;11.548;2022-07-23T07:42:44;21.90;99.90
29813;DHT22;16707;48.106;11.548;2022-07-23T07:45:12;21.90;99.90
29813;DHT22;16707;48.106;11.548;2022-07-23T07:47:42;21.80;99.90
29813;DHT22;16707;48.106;11.548;2022-07-23T07:50:10;21.80;99.90
29813;DHT22;16707;48.106;11.548;2022-07-23T07:52:38;21.80;99.90
29813;DHT22;16707;48.106;11.548;2022-07-23T07:55:07;21.70;99.90
29813;DHT22;16707;48.106;11.548;2022-07-23T07:57:36;21.70;99.90
29813;DHT22;16707;48.106;11.548;2022-07-23T08:00:05;21.70;99.90
29813;DHT22;16707;48.106;11.548;2022-07-23T08:02:42;21.80;99.90
29813;DHT22;16707;48.106;11.548;2022-07-23T08:05:09;21.90;99.90
29813;DHT22;16707;48.106;11.548;2022-07-23T08:07:37;21.90;99.90
29813;DHT22;16707;48.106;11.548;2022-07-23T08:10:09;22.00;99.90
29813;DHT22;16707;48.106;11.548;2022-07-23T08:12:41;22.10;99.90
29813;DHT22;16707;48.106;11.548;2022-07-23T08:15:13;22.10;99.90
29813;DHT22;16707;48.106;11.548;2022-07-23T08:17:45;22.20;99.90
29813;DHT22;16707;48.106;11.548;2022-07-23T08:20:14;22.40;99.90
29813;DHT22;16707;48.106;11.548;2022-07-23T08:22:46;22.40;99.90
29813;DHT22;16707;48.106;11.548;2022-07-23T08:25:13;22.60;99.90
29813;DHT22;16707;48.106;11.548;2022-07-23T08:27:41;22.80;99.90
29813;DHT22;16707;48.106;11.548;2022-07-23T08:30:10;22.80;99.90
29813;DHT22;16707;48.106;11.548;2022-07-23T08:32:54;23.00;99.90
29813;DHT22;16707;48.106;11.548;2022-07-23T08:35:27;23.00;99.90
29813;DHT22;16707;48.106;11.548;2022-07-23T08:37:57;23.10;99.90
29813;DHT22;16707;48.106;11.548;2022-07-23T08:40:35;23.40;99.80
29813;DHT22;16707;48.106;11.548;2022-07-23T08:43:06;23.60;99.20
29813;DHT22;16707;48.106;11.548;2022-07-23T08:45:36;24.00;96.90
29813;DHT22;16707;48.106;11.548;2022-07-23T08:48:08;24.40;94.60
29813;DHT22;16707;48.106;11.548;2022-07-23T08:50:43;24.60;92.40
29813;DHT22;16707;48.106;11.548;2022-07-23T08:53:11;24.70;92.40
29813;DHT22;16707;48.106;11.548;2022-07-23T08:55:39;24.80;91.20
29813;DHT22;16707;48.106;11.548;2022-07-23T08:58:06;24.90;91.20
29813;DHT22;16707;48.106;11.548;2022-07-23T09:00:35;24.90;90.80
29813;DHT22;16707;48.106;11.548;2022-07-23T09:03:11;25.00;90.50
29813;DHT22;16707;48.106;11.548;2022-07-23T09:05:42;25.10;89.10
29813;DHT22;16707;48.106;11.548;2022-07-23T09:08:13;24.70;90.30
29813;DHT22;16707;48.106;11.548;2022-07-23T09:10:53;24.60;90.50
29813;DHT22;16707;48.106;11.548;2022-07-23T09:13:32;24.60;89.50
29813;DHT22;16707;48.106;11.548;2022-07-23T09:16:02;24.60;87.00
29813;DHT22;16707;48.106;11.548;2022-07-23T09:18:41;24.40;85.70
29813;DHT22;16707;48.106;11.548;2022-07-23T09:21:24;24.50;86.30
29813;DHT22;16707;48.106;11.548;2022-07-23T09:23:57;24.50;83.50
29813;DHT22;16707;48.106;11.548;2022-07-23T09:26:36;24.60;90.10
29813;DHT22;16707;48.106;11.548;2022-07-23T09:29:09;24.80;84.10
29813;DHT22;16707;48.106;11.548;2022-07-23T09:31:53;25.00;88.70
29813;DHT22;16707;48.106;11.548;2022-07-23T09:34:30;25.30;81.20
29813;DHT22;16707;48.106;11.548;2022-07-23T09:37:10;25.80;78.30
29813;DHT22;16707;48.106;11.548;2022-07-23T09:39:45;26.30;77.30
29813;DHT22;16707;48.106;11.548;2022-07-23T09:42:18;26.90;76.70
29813;DHT22;16707;48.106;11.548;2022-07-23T09:44:49;27.20;73.40
29813;DHT22;16707;48.106;11.548;2022-07-23T09:47:18;27.30;72.20
29813;DHT22;16707;48.106;11.548;2022-07-23T09:50:01;27.40;71.50
29813;DHT22;16707;48.106;11.548;2022-07-23T09:52:33;27.50;69.20
29813;DHT22;16707;48.106;11.548;2022-07-23T09:55:05;27.70;69.30
29813;DHT22;16707;48.106;11.548;2022-07-23T09:57:35;27.40;67.20
29813;DHT22;16707;48.106;11.548;2022-07-23T10:00:07;27.30;68.20
29813;DHT22;16707;48.106;11.548;2022-07-23T10:02:37;27.00;65.80
29813;DHT22;16707;48.106;11.548;2022-07-23T10:05:07;27.30;67.50
29813;DHT22;16707;48.106;11.548;2022-07-23T10:07:37;27.40;62.80
29813;DHT22;16707;48.106;11.548;2022-07-23T10:10:11;27.70;62.60
29813;DHT22;16707;48.106;11.548;2022-07-23T10:12:45;28.30;61.30
29813;DHT22;16707;48.106;11.548;2022-07-23T10:15:26;28.60;58.90
29813;DHT22;16707;48.106;11.548;2022-07-23T10:17:58;29.10;57.40
29813;DHT22;16707;48.106;11.548;2022-07-23T10:20:27;29.30;56.60
29813;DHT22;16707;48.106;11.548;2022-07-23T10:23:02;29.00;56.60
29813;DHT22;16707;48.106;11.548;2022-07-23T10:25:39;28.80;57.10
29813;DHT22;16707;48.106;11.548;2022-07-23T10:28:21;28.70;57.50
29813;DHT22;16707;48.106;11.548;2022-07-23T10:31:02;28.30;57.60
29813;DHT22;16707;48.106;11.548;2022-07-23T10:33:45;28.30;58.10
29813;DHT22;16707;48.106;11.548;2022-07-23T10:36:20;28.20;58.30
29813;DHT22;16707;48.106;11.548;2022-07-23T10:39:04;28.30;59.40
29813;DHT22;16707;48.106;11.548;2022-07-23T10:41:33;28.30;58.10
29813;DHT22;16707;48.106;11.548;2022-07-23T10:44:14;28.20;56.80
29813;DHT22;16707;48.106;11.548;2022-07-23T10:46:56;28.10;56.20
29813;DHT22;16707;48.106;11.548;2022-07-23T10:49:41;28.40;55.90
29813;DHT22;16707;48.106;11.548;2022-07-23T10:52:31;28.60;55.20
29813;DHT22;16707;48.106;11.548;2022-07-23T10:58:09;29.10;55.50
29813;DHT22;16707;48.106;11.548;2022-07-23T11:00:43;29.10;53.70
29813;DHT22;16707;48.106;11.548;2022-07-23T11:03:31;29.20;53.40
29813;DHT22;16707;48.106;11.548;2022-07-23T11:06:05;29.40;54.00
29813;DHT22;16707;48.106;11.548;2022-07-23T11:08:34;29.50;53.90
29813;DHT22;16707;48.106;11.548;2022-07-23T11:11:10;29.30;54.00
29813;DHT22;16707;48.106;11.548;2022-07-23T11:13:45;29.00;54.00
29813;DHT22;16707;48.106;11.548;2022-07-23T11:16:25;28.80;54.10
29813;DHT22;16707;48.106;11.548;2022-07-23T11:19:04;28.50;55.10
29813;DHT22;16707;48.106;11.548;2022-07-23T11:21:48;28.50;55.80
29813;DHT22;16707;48.106;11.548;2022-07-23T11:24:22;28.40;55.90
29813;DHT22;16707;48.106;11.548;2022-07-23T11:27:02;28.20;56.30
29813;DHT22;16707;48.106;11.548;2022-07-23T11:29:47;28.50;56.00
29813;DHT22;16707;48.106;11.548;2022-07-23T11:32:34;28.20;56.10
29813;DHT22;16707;48.106;11.548;2022-07-23T11:35:19;27.90;56.90
29813;DHT22;16707;48.106;11.548;2022-07-23T11:37:48;27.80;57.10
29813;DHT22;16707;48.106;11.548;2022-07-23T11:40:20;27.50;57.70
29813;DHT22;16707;48.106;11.548;2022-07-23T11:42:53;27.30;58.60
29813;DHT22;16707;48.106;11.548;2022-07-23T11:45:29;27.10;59.10
29813;DHT22;16707;48.106;11.548;2022-07-23T11:47:57;26.90;59.80
29813;DHT22;16707;48.106;11.548;2022-07-23T11:50:26;26.80;60.00
29813;DHT22;16707;48.106;11.548;2022-07-23T11:52:54;26.70;60.40
29813;DHT22;16707;48.106;11.548;2022-07-23T11:55:26;26.80;61.00
29813;DHT22;16707;48.106;11.548;2022-07-23T11:57:54;26.90;60.10
29813;DHT22;16707;48.106;11.548;2022-07-23T12:00:23;26.90;60.90
29813;DHT22;16707;48.106;11.548;2022-07-23T12:02:54;26.90;61.40
29813;DHT22;16707;48.106;11.548;2022-07-23T12:05:26;27.00;61.60
29813;DHT22;16707;48.106;11.548;2022-07-23T12:07:58;26.70;61.40
29813;DHT22;16707;48.106;11.548;2022-07-23T12:10:33;26.60;61.80
29813;DHT22;16707;48.106;11.548;2022-07-23T12:13:03;26.60;62.20
29813;DHT22;16707;48.106;11.548;2022-07-23T12:15:33;26.70;63.10
29813;DHT22;16707;48.106;11.548;2022-07-23T12:18:08;26.70;62.60
29813;DHT22;16707;48.106;11.548;2022-07-23T12:20:38;26.60;62.80
29813;DHT22;16707;48.106;11.548;2022-07-23T12:23:08;26.60;62.80
29813;DHT22;16707;48.106;11.548;2022-07-23T12:25:44;26.50;62.90
29813;DHT22;16707;48.106;11.548;2022-07-23T12:28:13;26.40;64.00
29813;DHT22;16707;48.106;11.548;2022-07-23T12:30:43;26.40;63.80
29813;DHT22;16707;48.106;11.548;2022-07-23T12:33:22;26.50;64.20
29813;DHT22;16707;48.106;11.548;2022-07-23T12:35:53;26.40;63.70
29813;DHT22;16707;48.106;11.548;2022-07-23T12:38:26;26.20;64.90
29813;DHT22;16707;48.106;11.548;2022-07-23T12:41:00;26.20;65.00
29813;DHT22;16707;48.106;11.548;2022-07-23T12:43:29;26.20;65.00
29813;DHT22;16707;48.106;11.548;2022-07-23T12:46:02;26.20;64.80
29813;DHT22;16707;48.106;11.548;2022-07-23T12:48:38;26.20;65.20
29813;DHT22;16707;48.106;11.548;2022-07-23T12:51:15;26.10;65.30
29813;DHT22;16707;48.106;11.548;2022-07-23T12:53:47;25.90;64.60
29813;DHT22;16707;48.106;11.548;2022-07-23T12:56:22;25.80;65.50
29813;DHT22;16707;48.106;11.548;2022-07-23T12:59:02;25.80;65.30
29813;DHT22;16707;48.106;11.548;2022-07-23T13:01:40;26.00;65.60
29813;DHT22;16707;48.106;11.548;2022-07-23T13:04:09;26.10;65.10
29813;DHT22;16707;48.106;11.548;2022-07-23T13:06:39;26.30;64.70
29813;DHT22;16707;48.106;11.548;2022-07-23T13:09:11;26.40;63.80
29813;DHT22;16707;48.106;11.548;2022-07-23T13:11:46;26.50;64.20
29813;DHT22;16707;48.106;11.548;2022-07-23T13:14:17;26.70;63.20
29813;DHT22;16707;48.106;11.548;2022-07-23T13:16:56;26.70;63.70
29813;DHT22;16707;48.106;11.548;2022-07-23T13:19:25;26.80;62.90
29813;DHT22;16707;48.106;11.548;2022-07-23T13:21:55;26.80;63.30
29813;DHT22;16707;48.106;11.548;2022-07-23T13:24:29;27.00;63.40
29813;DHT22;16707;48.106;11.548;2022-07-23T13:27:04;27.10;63.60
29813;DHT22;16707;48.106;11.548;2022-07-23T13:29:33;27.00;63.10
29813;DHT22;16707;48.106;11.548;2022-07-23T13:32:00;27.10;65.10
29813;DHT22;16707;48.106;11.548;2022-07-23T13:34:28;27.20;66.50
29813;DHT22;16707;48.106;11.548;2022-07-23T13:36:55;27.20;63.60
29813;DHT22;16707;48.106;11.548;2022-07-23T13:39:23;27.20;64.40
29813;DHT22;16707;48.106;11.548;2022-07-23T13:41:53;27.10;65.40
29813;DHT22;16707;48.106;11.548;2022-07-23T13:44:24;27.20;64.20
29813;DHT22;16707;48.106;11.548;2022-07-23T13:46:55;27.40;63.90
29813;DHT22;16707;48.106;11.548;2022-07-23T13:49:22;27.70;63.10
29813;DHT22;16707;48.106;11.548;2022-07-23T13:52:00;27.80;62.10
29813;DHT22;16707;48.106;11.548;2022-07-23T13:54:28;27.80;62.80
29813;DHT22;16707;48.106;11.548;2022-07-23T13:57:03;27.80;62.10
29813;DHT22;16707;48.106;11.548;2022-07-23T13:59:36;27.80;62.20
29813;DHT22;16707;48.106;11.548;2022-07-23T14:02:06;27.60;62.20
29813;DHT22;16707;48.106;11.548;2022-07-23T14:04:35;27.30;62.50
29813;DHT22;16707;48.106;11.548;2022-07-23T14:07:03;27.20;63.60
29813;DHT22;16707;48.106;11.548;2022-07-23T14:09:30;26.70;62.80
29813;DHT22;16707;48.106;11.548;2022-07-23T14:12:00;26.50;65.30
29813;DHT22;16707;48.106;11.548;2022-07-23T14:14:33;26.20;67.10
29813;DHT22;16707;48.106;11.548;2022-07-23T14:17:09;25.90;70.50
29813;DHT22;16707;48.106;11.548;2022-07-23T14:19:36;25.60;72.60
29813;DHT22;16707;48.106;11.548;2022-07-23T14:22:04;25.30;72.80
29813;DHT22;16707;48.106;11.548;2022-07-23T14:24:31;25.10;75.40
29813;DHT22;16707;48.106;11.548;2022-07-23T14:27:04;25.20;76.80
29813;DHT22;16707;48.106;11.548;2022-07-23T14:29:31;25.20;75.30
29813;DHT22;16707;48.106;11.548;2022-07-23T14:32:02;25.20;73.20
29813;DHT22;16707;48.106;11.548;2022-07-23T14:34:33;25.30;73.10
29813;DHT22;16707;48.106;11.548;2022-07-23T14:37:04;25.40;72.00
29813;DHT22;16707;48.106;11.548;2022-07-23T14:39:32;25.50;72.10
29813;DHT22;16707;48.106;11.548;2022-07-23T14:42:02;25.50;70.80
29813;DHT22;16707;48.106;11.548;2022-07-23T14:44:30;25.70;70.40
29813;DHT22;16707;48.106;11.548;2022-07-23T14:46:57;25.70;70.30
29813;DHT22;16707;48.106;11.548;2022-07-23T14:49:25;25.80;70.20
29813;DHT22;16707;48.106;11.548;2022-07-23T14:51:57;25.80;71.30
29813;DHT22;16707;48.106;11.548;2022-07-23T14:54:26;26.00;69.30
29813;DHT22;16707;48.106;11.548;2022-07-23T14:56:56;26.00;69.10
29813;DHT22;16707;48.106;11.548;2022-07-23T14:59:28;26.10;68.00
29813;DHT22;16707;48.106;11.548;2022-07-23T15:01:59;26.20;68.10
29813;DHT22;16707;48.106;11.548;2022-07-23T15:04:26;26.20;67.90
29813;DHT22;16707;48.106;11.548;2022-07-23T15:06:54;26.20;67.80
29813;DHT22;16707;48.106;11.548;2022-07-23T15:09:23;26.30;68.30
29813;DHT22;16707;48.106;11.548;2022-07-23T15:11:50;26.40;69.70
29813;DHT22;16707;48.106;11.548;2022-07-23T15:14:19;26.30;67.80
29813;DHT22;16707;48.106;11.548;2022-07-23T15:16:47;26.40;67.80
29813;DHT22;16707;48.106;11.548;2022-07-23T15:19:28;26.50;69.90
29813;DHT22;16707;48.106;11.548;2022-07-23T15:22:02;26.70;67.50
29813;DHT22;16707;48.106;11.548;2022-07-23T15:24:31;26.80;66.90
29813;DHT22;16707;48.106;11.548;2022-07-23T15:26:59;26.90;65.90
29813;DHT22;16707;48.106;11.548;2022-07-23T15:29:26;27.00;66.20
29813;DHT22;16707;48.106;11.548;2022-07-23T15:31:54;27.10;66.40
29813;DHT22;16707;48.106;11.548;2022-07-23T15:34:23;27.00;66.50
29813;DHT22;16707;48.106;11.548;2022-07-23T15:36:51;26.90;65.80
29813;DHT22;16707;48.106;11.548;2022-07-23T15:39:25;27.00;66.20
29813;DHT22;16707;48.106;11.548;2022-07-23T15:41:54;26.90;66.00
29813;DHT22;16707;48.106;11.548;2022-07-23T15:44:22;27.00;66.10
29813;DHT22;16707;48.106;11.548;2022-07-23T15:46:50;27.10;66.30
29813;DHT22;16707;48.106;11.548;2022-07-23T15:49:18;27.10;65.70
29813;DHT22;16707;48.106;11.548;2022-07-23T15:51:45;26.90;66.00